PWSweather.com
Personal Weather Stations
Station Observations
WXGLH1124
Southern Oaks, Indianapolis, IN 46217

Southern OaksIndianapolis, IN 46217

Lat: 39.65113, Lon: -86.16866

Elevation: 720

Station Type: Vantage Pro2

High Low Average
Temperature 50.0°F10.0°C 44.2°F6.8°C 47.1°F8.4°C
Dew Point 48.1°F8.9°C 41.3°F5.2°C 44.1°F6.7°C
Winds 11.0 mph 17.7 kmh Calm Calm 2.0 mph E3.2 kmh E
Wind Gusts 16.0 mph25.7 kmh -- 4.0 mph6.4 kmh
Humidity 93% 82% 89%
Pressure 30.18 in1022.0 mb 30.04 in1017.3 mb -
Precipitation 0.00 in0.0 mm - -
Hour Temp Dew Point Humidity Winds Wind Gusts Pressure Precip Precip Rate Daily Precip Total
12:00 AM 46.0°F7.8°C 42.1°F5.6°C 86% 1.0 mph SSE1.6 kmh SSE 4.0 mph6.4 kmh 30.11 in1019.6 mb 0.00 in0.0 mm 0.00 in0.0 mm 0.00 in0.0 mm
12:05 AM 46.1°F7.8°C 42.2°F5.7°C 86% 2.0 mph SSE3.2 kmh SSE 3.0 mph4.8 kmh 30.11 in1019.6 mb 0.00 in0.0 mm 0.00 in0.0 mm 0.00 in0.0 mm
12:10 AM 46.3°F7.9°C 42.4°F5.8°C 86% 7.0 mph S11.3 kmh S 7.0 mph11.3 kmh 30.11 in1019.6 mb 0.00 in0.0 mm 0.00 in0.0 mm 0.00 in0.0 mm
12:15 AM 46.5°F8.1°C 42.2°F5.7°C 85% 2.0 mph SSE3.2 kmh SSE 6.0 mph9.7 kmh 30.11 in1019.6 mb 0.00 in0.0 mm 0.00 in0.0 mm 0.00 in0.0 mm
12:20 AM 46.6°F8.1°C 42.0°F5.6°C 84% 3.0 mph SSE4.8 kmh SSE 3.0 mph4.8 kmh 30.11 in1019.6 mb 0.00 in0.0 mm 0.00 in0.0 mm 0.00 in0.0 mm
12:25 AM 46.7°F8.2°C 42.1°F5.6°C 84% 5.0 mph SSE8.0 kmh SSE 7.0 mph11.3 kmh 30.11 in1019.6 mb 0.00 in0.0 mm 0.00 in0.0 mm 0.00 in0.0 mm
12:29 AM 46.8°F8.2°C 42.2°F5.7°C 84% 2.0 mph SSE3.2 kmh SSE 3.0 mph4.8 kmh 30.11 in1019.6 mb 0.00 in0.0 mm 0.00 in0.0 mm 0.00 in0.0 mm
12:35 AM 46.8°F8.2°C 42.2°F5.7°C 84% 2.0 mph S3.2 kmh S 5.0 mph8.0 kmh 30.11 in1019.6 mb 0.00 in0.0 mm 0.00 in0.0 mm 0.00 in0.0 mm
12:39 AM 46.8°F8.2°C 41.9°F5.5°C 83% Calm Calm 6.0 mph9.7 kmh 30.12 in1020.0 mb 0.00 in0.0 mm 0.00 in0.0 mm 0.00 in0.0 mm
12:45 AM 46.9°F8.3°C 42.0°F5.6°C 83% 4.0 mph S6.4 kmh S 5.0 mph8.0 kmh 30.12 in1020.0 mb 0.00 in0.0 mm 0.00 in0.0 mm 0.00 in0.0 mm
12:50 AM 46.9°F8.3°C 42.0°F5.6°C 83% 5.0 mph S8.0 kmh S 7.0 mph11.3 kmh 30.12 in1020.0 mb 0.00 in0.0 mm 0.00 in0.0 mm 0.00 in0.0 mm
12:54 AM 46.9°F8.3°C 42.0°F5.6°C 83% 2.0 mph S3.2 kmh S 9.0 mph14.5 kmh 30.12 in1020.0 mb 0.00 in0.0 mm 0.00 in0.0 mm 0.00 in0.0 mm
01:00 AM 47.0°F8.3°C 42.1°F5.6°C 83% Calm Calm 5.0 mph8.0 kmh 30.12 in1020.0 mb 0.00 in0.0 mm 0.00 in0.0 mm 0.00 in0.0 mm
01:04 AM 46.9°F8.3°C 42.0°F5.6°C 83% Calm Calm 3.0 mph4.8 kmh 30.12 in1020.0 mb 0.00 in0.0 mm 0.00 in0.0 mm 0.00 in0.0 mm
01:10 AM 46.8°F8.2°C 41.9°F5.5°C 83% 2.0 mph S3.2 kmh S 8.0 mph12.9 kmh 30.11 in1019.6 mb 0.00 in0.0 mm 0.00 in0.0 mm 0.00 in0.0 mm
01:15 AM 46.7°F8.2°C 41.8°F5.4°C 83% 2.0 mph SSE3.2 kmh SSE 6.0 mph9.7 kmh 30.11 in1019.6 mb 0.00 in0.0 mm 0.00 in0.0 mm 0.00 in0.0 mm
01:20 AM 46.7°F8.2°C 41.8°F5.4°C 83% 2.0 mph S3.2 kmh S 5.0 mph8.0 kmh 30.11 in1019.6 mb 0.00 in0.0 mm 0.00 in0.0 mm 0.00 in0.0 mm
01:24 AM 46.7°F8.2°C 41.8°F5.4°C 83% 6.0 mph SSE9.7 kmh SSE 6.0 mph9.7 kmh 30.11 in1019.6 mb 0.00 in0.0 mm 0.00 in0.0 mm 0.00 in0.0 mm
01:30 AM 46.8°F8.2°C 41.9°F5.5°C 83% Calm Calm 5.0 mph8.0 kmh 30.12 in1020.0 mb 0.00 in0.0 mm 0.00 in0.0 mm 0.00 in0.0 mm
01:35 AM 46.9°F8.3°C 41.7°F5.4°C 82% 1.0 mph SSE1.6 kmh SSE 5.0 mph8.0 kmh 30.12 in1020.0 mb 0.00 in0.0 mm 0.00 in0.0 mm 0.00 in0.0 mm
01:40 AM 46.9°F8.3°C 41.7°F5.4°C 82% 3.0 mph SSE4.8 kmh SSE 5.0 mph8.0 kmh 30.12 in1020.0 mb 0.00 in0.0 mm 0.00 in0.0 mm 0.00 in0.0 mm
01:45 AM 47.0°F8.3°C 41.8°F5.4°C 82% Calm Calm 6.0 mph9.7 kmh 30.12 in1020.0 mb 0.00 in0.0 mm 0.00 in0.0 mm 0.00 in0.0 mm
01:50 AM 47.0°F8.3°C 41.8°F5.4°C 82% 1.0 mph SSE1.6 kmh SSE 1.0 mph1.6 kmh 30.12 in1020.0 mb 0.00 in0.0 mm 0.00 in0.0 mm 0.00 in0.0 mm
01:55 AM 46.9°F8.3°C 41.7°F5.4°C 82% Calm Calm 4.0 mph6.4 kmh 30.12 in1020.0 mb 0.00 in0.0 mm 0.00 in0.0 mm 0.00 in0.0 mm
02:00 AM 46.9°F8.3°C 41.7°F5.4°C 82% 2.0 mph SSE3.2 kmh SSE 7.0 mph11.3 kmh 30.12 in1020.0 mb 0.00 in0.0 mm 0.00 in0.0 mm 0.00 in0.0 mm
02:05 AM 46.9°F8.3°C 41.7°F5.4°C 82% Calm Calm 2.0 mph3.2 kmh 30.12 in1020.0 mb 0.00 in0.0 mm 0.00 in0.0 mm 0.00 in0.0 mm
02:09 AM 46.8°F8.2°C 41.6°F5.3°C 82% Calm Calm 2.0 mph3.2 kmh 30.12 in1020.0 mb 0.00 in0.0 mm 0.00 in0.0 mm 0.00 in0.0 mm
02:15 AM 46.7°F8.2°C 41.5°F5.3°C 82% Calm Calm 4.0 mph6.4 kmh 30.12 in1020.0 mb 0.00 in0.0 mm 0.00 in0.0 mm 0.00 in0.0 mm
02:20 AM 46.6°F8.1°C 41.4°F5.2°C 82% Calm Calm 2.0 mph3.2 kmh 30.11 in1019.6 mb 0.00 in0.0 mm 0.00 in0.0 mm 0.00 in0.0 mm
02:25 AM 46.5°F8.1°C 41.3°F5.2°C 82% 1.0 mph SSE1.6 kmh SSE 2.0 mph3.2 kmh 30.11 in1019.6 mb 0.00 in0.0 mm 0.00 in0.0 mm 0.00 in0.0 mm
02:30 AM 46.4°F8.0°C 41.5°F5.3°C 83% Calm Calm 3.0 mph4.8 kmh 30.11 in1019.6 mb 0.00 in0.0 mm 0.00 in0.0 mm 0.00 in0.0 mm
02:34 AM 46.4°F8.0°C 41.5°F5.3°C 83% Calm Calm 3.0 mph4.8 kmh 30.11 in1019.6 mb 0.00 in0.0 mm 0.00 in0.0 mm 0.00 in0.0 mm
02:40 AM 46.4°F8.0°C 41.5°F5.3°C 83% Calm Calm -- 30.12 in1020.0 mb 0.00 in0.0 mm 0.00 in0.0 mm 0.00 in0.0 mm
02:45 AM 46.4°F8.0°C 41.5°F5.3°C 83% Calm Calm 1.0 mph1.6 kmh 30.12 in1020.0 mb 0.00 in0.0 mm 0.00 in0.0 mm 0.00 in0.0 mm
02:50 AM 46.5°F8.1°C 41.6°F5.3°C 83% 2.0 mph SSE3.2 kmh SSE 2.0 mph3.2 kmh 30.12 in1020.0 mb 0.00 in0.0 mm 0.00 in0.0 mm 0.00 in0.0 mm
02:55 AM 46.5°F8.1°C 41.3°F5.2°C 82% Calm Calm 2.0 mph3.2 kmh 30.13 in1020.3 mb 0.00 in0.0 mm 0.00 in0.0 mm 0.00 in0.0 mm
03:00 AM 46.7°F8.2°C 41.5°F5.3°C 82% Calm Calm 1.0 mph1.6 kmh 30.13 in1020.3 mb 0.00 in0.0 mm 0.00 in0.0 mm 0.00 in0.0 mm
03:04 AM 46.7°F8.2°C 41.5°F5.3°C 82% 1.0 mph SSE1.6 kmh SSE 4.0 mph6.4 kmh 30.13 in1020.3 mb 0.00 in0.0 mm 0.00 in0.0 mm 0.00 in0.0 mm
03:10 AM 46.7°F8.2°C 41.5°F5.3°C 82% Calm Calm -- 30.13 in1020.3 mb 0.00 in0.0 mm 0.00 in0.0 mm 0.00 in0.0 mm
03:15 AM 46.7°F8.2°C 41.5°F5.3°C 82% Calm Calm 1.0 mph1.6 kmh 30.13 in1020.3 mb 0.00 in0.0 mm 0.00 in0.0 mm 0.00 in0.0 mm
03:20 AM 46.7°F8.2°C 41.5°F5.3°C 82% Calm Calm -- 30.13 in1020.3 mb 0.00 in0.0 mm 0.00 in0.0 mm 0.00 in0.0 mm
03:24 AM 46.6°F8.1°C 41.7°F5.4°C 83% Calm Calm 2.0 mph3.2 kmh 30.12 in1020.0 mb 0.00 in0.0 mm 0.00 in0.0 mm 0.00 in0.0 mm
03:30 AM 46.4°F8.0°C 41.5°F5.3°C 83% Calm Calm 1.0 mph1.6 kmh 30.12 in1020.0 mb 0.00 in0.0 mm 0.00 in0.0 mm 0.00 in0.0 mm
03:34 AM 46.4°F8.0°C 41.5°F5.3°C 83% Calm Calm 1.0 mph1.6 kmh 30.12 in1020.0 mb 0.00 in0.0 mm 0.00 in0.0 mm 0.00 in0.0 mm
03:40 AM 46.3°F7.9°C 41.4°F5.2°C 83% Calm Calm 2.0 mph3.2 kmh 30.12 in1020.0 mb 0.00 in0.0 mm 0.00 in0.0 mm 0.00 in0.0 mm
03:45 AM 46.3°F7.9°C 41.4°F5.2°C 83% Calm Calm -- 30.12 in1020.0 mb 0.00 in0.0 mm 0.00 in0.0 mm 0.00 in0.0 mm
03:50 AM 46.2°F7.9°C 41.3°F5.2°C 83% Calm Calm 4.0 mph6.4 kmh 30.12 in1020.0 mb 0.00 in0.0 mm 0.00 in0.0 mm 0.00 in0.0 mm
03:55 AM 46.1°F7.8°C 41.5°F5.3°C 84% Calm Calm 1.0 mph1.6 kmh 30.12 in1020.0 mb 0.00 in0.0 mm 0.00 in0.0 mm 0.00 in0.0 mm
04:00 AM 46.1°F7.8°C 41.5°F5.3°C 84% Calm Calm 1.0 mph1.6 kmh 30.12 in1020.0 mb 0.00 in0.0 mm 0.00 in0.0 mm 0.00 in0.0 mm
04:04 AM 46.1°F7.8°C 41.5°F5.3°C 84% Calm Calm 1.0 mph1.6 kmh 30.12 in1020.0 mb 0.00 in0.0 mm 0.00 in0.0 mm 0.00 in0.0 mm
04:10 AM 46.1°F7.8°C 41.5°F5.3°C 84% Calm Calm -- 30.12 in1020.0 mb 0.00 in0.0 mm 0.00 in0.0 mm 0.00 in0.0 mm
04:14 AM 46.0°F7.8°C 41.4°F5.2°C 84% Calm Calm -- 30.12 in1020.0 mb 0.00 in0.0 mm 0.00 in0.0 mm 0.00 in0.0 mm
04:19 AM 45.9°F7.7°C 41.7°F5.4°C 85% Calm Calm 1.0 mph1.6 kmh 30.12 in1020.0 mb 0.00 in0.0 mm 0.00 in0.0 mm 0.00 in0.0 mm
04:25 AM 45.9°F7.7°C 41.7°F5.4°C 85% Calm Calm 1.0 mph1.6 kmh 30.11 in1019.6 mb 0.00 in0.0 mm 0.00 in0.0 mm 0.00 in0.0 mm
04:29 AM 45.9°F7.7°C 41.7°F5.4°C 85% Calm Calm -- 30.12 in1020.0 mb 0.00 in0.0 mm 0.00 in0.0 mm 0.00 in0.0 mm
04:35 AM 45.8°F7.7°C 41.6°F5.3°C 85% Calm Calm -- 30.12 in1020.0 mb 0.00 in0.0 mm 0.00 in0.0 mm 0.00 in0.0 mm
04:40 AM 45.8°F7.7°C 41.6°F5.3°C 85% Calm Calm -- 30.12 in1020.0 mb 0.00 in0.0 mm 0.00 in0.0 mm 0.00 in0.0 mm
04:45 AM 45.8°F7.7°C 41.6°F5.3°C 85% Calm Calm -- 30.12 in1020.0 mb 0.00 in0.0 mm 0.00 in0.0 mm 0.00 in0.0 mm
04:50 AM 45.7°F7.6°C 41.5°F5.3°C 85% Calm Calm -- 30.12 in1020.0 mb 0.00 in0.0 mm 0.00 in0.0 mm 0.00 in0.0 mm
04:55 AM 45.7°F7.6°C 41.5°F5.3°C 85% Calm Calm -- 30.12 in1020.0 mb 0.00 in0.0 mm 0.00 in0.0 mm 0.00 in0.0 mm
05:00 AM 45.6°F7.6°C 41.4°F5.2°C 85% Calm Calm -- 30.12 in1020.0 mb 0.00 in0.0 mm 0.00 in0.0 mm 0.00 in0.0 mm
05:05 AM 45.6°F7.6°C 41.7°F5.4°C 86% Calm Calm -- 30.12 in1020.0 mb 0.00 in0.0 mm 0.00 in0.0 mm 0.00 in0.0 mm
05:09 AM 45.5°F7.5°C 41.6°F5.3°C 86% 1.0 mph SSE1.6 kmh SSE 1.0 mph1.6 kmh 30.12 in1020.0 mb 0.00 in0.0 mm 0.00 in0.0 mm 0.00 in0.0 mm
05:15 AM 45.5°F7.5°C 41.6°F5.3°C 86% Calm Calm -- 30.12 in1020.0 mb 0.00 in0.0 mm 0.00 in0.0 mm 0.00 in0.0 mm
05:20 AM 45.5°F7.5°C 41.6°F5.3°C 86% Calm Calm -- 30.12 in1020.0 mb 0.00 in0.0 mm 0.00 in0.0 mm 0.00 in0.0 mm
05:25 AM 45.5°F7.5°C 41.6°F5.3°C 86% Calm Calm -- 30.12 in1020.0 mb 0.00 in0.0 mm 0.00 in0.0 mm 0.00 in0.0 mm
05:30 AM 45.5°F7.5°C 41.6°F5.3°C 86% Calm Calm -- 30.12 in1020.0 mb 0.00 in0.0 mm 0.00 in0.0 mm 0.00 in0.0 mm
05:35 AM 45.4°F7.4°C 41.8°F5.4°C 87% Calm Calm -- 30.12 in1020.0 mb 0.00 in0.0 mm 0.00 in0.0 mm 0.00 in0.0 mm
05:39 AM 45.3°F7.4°C 41.7°F5.4°C 87% Calm Calm -- 30.12 in1020.0 mb 0.00 in0.0 mm 0.00 in0.0 mm 0.00 in0.0 mm
05:45 AM 45.3°F7.4°C 41.7°F5.4°C 87% Calm Calm -- 30.12 in1020.0 mb 0.00 in0.0 mm 0.00 in0.0 mm 0.00 in0.0 mm
05:50 AM 45.3°F7.4°C 41.7°F5.4°C 87% Calm Calm -- 30.12 in1020.0 mb 0.00 in0.0 mm 0.00 in0.0 mm 0.00 in0.0 mm
05:55 AM 45.3°F7.4°C 41.7°F5.4°C 87% Calm Calm -- 30.13 in1020.3 mb 0.00 in0.0 mm 0.00 in0.0 mm 0.00 in0.0 mm
06:00 AM 45.3°F7.4°C 41.7°F5.4°C 87% Calm Calm -- 30.13 in1020.3 mb 0.00 in0.0 mm 0.00 in0.0 mm 0.00 in0.0 mm
06:05 AM 45.3°F7.4°C 41.7°F5.4°C 87% Calm Calm -- 30.13 in1020.3 mb 0.00 in0.0 mm 0.00 in0.0 mm 0.00 in0.0 mm
06:09 AM 45.3°F7.4°C 41.7°F5.4°C 87% Calm Calm -- 30.13 in1020.3 mb 0.00 in0.0 mm 0.00 in0.0 mm 0.00 in0.0 mm
06:15 AM 45.3°F7.4°C 41.7°F5.4°C 87% Calm Calm -- 30.13 in1020.3 mb 0.00 in0.0 mm 0.00 in0.0 mm 0.00 in0.0 mm
06:20 AM 45.3°F7.4°C 41.7°F5.4°C 87% Calm Calm -- 30.13 in1020.3 mb 0.00 in0.0 mm 0.00 in0.0 mm 0.00 in0.0 mm
06:25 AM 45.3°F7.4°C 41.7°F5.4°C 87% Calm Calm -- 30.13 in1020.3 mb 0.00 in0.0 mm 0.00 in0.0 mm 0.00 in0.0 mm
06:30 AM 45.2°F7.3°C 41.6°F5.3°C 87% Calm Calm -- 30.14 in1020.7 mb 0.00 in0.0 mm 0.00 in0.0 mm 0.00 in0.0 mm
06:34 AM 45.2°F7.3°C 41.9°F5.5°C 88% Calm Calm -- 30.14 in1020.7 mb 0.00 in0.0 mm 0.00 in0.0 mm 0.00 in0.0 mm
06:40 AM 45.2°F7.3°C 41.9°F5.5°C 88% Calm Calm -- 30.14 in1020.7 mb 0.00 in0.0 mm 0.00 in0.0 mm 0.00 in0.0 mm
06:45 AM 45.1°F7.3°C 41.8°F5.4°C 88% Calm Calm -- 30.14 in1020.7 mb 0.00 in0.0 mm 0.00 in0.0 mm 0.00 in0.0 mm
06:50 AM 45.0°F7.2°C 41.7°F5.4°C 88% Calm Calm -- 30.15 in1021.0 mb 0.00 in0.0 mm 0.00 in0.0 mm 0.00 in0.0 mm
06:55 AM 44.9°F7.2°C 41.9°F5.5°C 89% Calm Calm -- 30.15 in1021.0 mb 0.01 in0.3 mm 0.12 in3.0 mm 0.01 in0.3 mm
06:59 AM 44.8°F7.1°C 41.8°F5.4°C 89% Calm Calm -- 30.15 in1021.0 mb 0.01 in0.3 mm 0.00 in0.0 mm 0.01 in0.3 mm
07:05 AM 44.8°F7.1°C 41.8°F5.4°C 89% Calm Calm -- 30.15 in1021.0 mb 0.01 in0.3 mm 0.00 in0.0 mm 0.01 in0.3 mm
07:10 AM 44.8°F7.1°C 41.8°F5.4°C 89% Calm Calm -- 30.15 in1021.0 mb 0.01 in0.3 mm 0.00 in0.0 mm 0.01 in0.3 mm
07:15 AM 44.7°F7.1°C 42.0°F5.6°C 90% Calm Calm -- 30.15 in1021.0 mb 0.01 in0.3 mm 0.00 in0.0 mm 0.01 in0.3 mm
07:20 AM 44.7°F7.1°C 42.0°F5.6°C 90% Calm Calm -- 30.16 in1021.3 mb 0.01 in0.3 mm 0.00 in0.0 mm 0.01 in0.3 mm
07:25 AM 44.6°F7.0°C 41.9°F5.5°C 90% Calm Calm -- 30.16 in1021.3 mb 0.02 in0.5 mm 0.12 in3.0 mm 0.02 in0.5 mm
07:30 AM 44.6°F7.0°C 41.9°F5.5°C 90% Calm Calm -- 30.16 in1021.3 mb 0.02 in0.5 mm 0.00 in0.0 mm 0.02 in0.5 mm
07:35 AM 44.5°F6.9°C 41.8°F5.4°C 90% Calm Calm -- 30.16 in1021.3 mb 0.02 in0.5 mm 0.00 in0.0 mm 0.02 in0.5 mm
07:40 AM 44.5°F6.9°C 41.8°F5.4°C 90% Calm Calm -- 30.16 in1021.3 mb 0.02 in0.5 mm 0.00 in0.0 mm 0.02 in0.5 mm
07:44 AM 44.5°F6.9°C 42.0°F5.6°C 91% Calm Calm -- 30.16 in1021.3 mb 0.02 in0.5 mm 0.00 in0.0 mm 0.02 in0.5 mm
07:50 AM 44.4°F6.9°C 41.9°F5.5°C 91% Calm Calm -- 30.16 in1021.3 mb 0.02 in0.5 mm 0.00 in0.0 mm 0.02 in0.5 mm
07:55 AM 44.4°F6.9°C 41.9°F5.5°C 91% Calm Calm -- 30.16 in1021.3 mb 0.02 in0.5 mm 0.00 in0.0 mm 0.02 in0.5 mm
08:00 AM 44.4°F6.9°C 41.9°F5.5°C 91% Calm Calm -- 30.16 in1021.3 mb 0.02 in0.5 mm 0.00 in0.0 mm 0.02 in0.5 mm
08:05 AM 44.3°F6.8°C 41.8°F5.4°C 91% Calm Calm 1.0 mph1.6 kmh 30.16 in1021.3 mb 0.02 in0.5 mm 0.00 in0.0 mm 0.02 in0.5 mm
08:10 AM 44.3°F6.8°C 41.8°F5.4°C 91% Calm Calm 1.0 mph1.6 kmh 30.16 in1021.3 mb 0.02 in0.5 mm 0.00 in0.0 mm 0.02 in0.5 mm
08:14 AM 44.3°F6.8°C 41.8°F5.4°C 91% Calm Calm 1.0 mph1.6 kmh 30.16 in1021.3 mb 0.02 in0.5 mm 0.00 in0.0 mm 0.02 in0.5 mm
08:19 AM 44.3°F6.8°C 41.8°F5.4°C 91% Calm Calm -- 30.16 in1021.3 mb 0.02 in0.5 mm 0.00 in0.0 mm 0.02 in0.5 mm
08:25 AM 44.3°F6.8°C 41.8°F5.4°C 91% Calm Calm -- 30.16 in1021.3 mb 0.02 in0.5 mm 0.00 in0.0 mm 0.02 in0.5 mm
08:29 AM 44.3°F6.8°C 41.8°F5.4°C 91% Calm Calm -- 30.16 in1021.3 mb 0.01 in0.3 mm 0.00 in0.0 mm 0.02 in0.5 mm
08:35 AM 44.4°F6.9°C 41.9°F5.5°C 91% Calm Calm -- 30.16 in1021.3 mb 0.02 in0.5 mm 0.10 in2.5 mm 0.03 in0.8 mm
08:40 AM 44.4°F6.9°C 41.9°F5.5°C 91% Calm Calm -- 30.17 in1021.7 mb 0.02 in0.5 mm 0.00 in0.0 mm 0.03 in0.8 mm
08:45 AM 44.4°F6.9°C 41.9°F5.5°C 91% Calm Calm -- 30.17 in1021.7 mb 0.02 in0.5 mm 0.00 in0.0 mm 0.03 in0.8 mm
08:49 AM 44.3°F6.8°C 41.8°F5.4°C 91% Calm Calm -- 30.17 in1021.7 mb 0.03 in0.8 mm 0.15 in3.8 mm 0.04 in1.0 mm
08:55 AM 44.3°F6.8°C 42.1°F5.6°C 92% Calm Calm 1.0 mph1.6 kmh 30.17 in1021.7 mb 0.03 in0.8 mm 0.00 in0.0 mm 0.04 in1.0 mm
09:00 AM 44.3°F6.8°C 42.1°F5.6°C 92% Calm Calm 1.0 mph1.6 kmh 30.17 in1021.7 mb 0.03 in0.8 mm 0.00 in0.0 mm 0.04 in1.0 mm
09:05 AM 44.3°F6.8°C 42.1°F5.6°C 92% Calm Calm 1.0 mph1.6 kmh 30.17 in1021.7 mb 0.03 in0.8 mm 0.00 in0.0 mm 0.04 in1.0 mm
09:10 AM 44.3°F6.8°C 42.1°F5.6°C 92% Calm Calm 1.0 mph1.6 kmh 30.17 in1021.7 mb 0.03 in0.8 mm 0.00 in0.0 mm 0.04 in1.0 mm
09:14 AM 44.3°F6.8°C 42.1°F5.6°C 92% Calm Calm 1.0 mph1.6 kmh 30.17 in1021.7 mb 0.04 in1.0 mm 0.15 in3.8 mm 0.05 in1.3 mm
09:20 AM 44.2°F6.8°C 42.0°F5.6°C 92% Calm Calm -- 30.17 in1021.7 mb 0.04 in1.0 mm 0.00 in0.0 mm 0.05 in1.3 mm
09:25 AM 44.3°F6.8°C 42.1°F5.6°C 92% Calm Calm -- 30.17 in1021.7 mb 0.04 in1.0 mm 0.00 in0.0 mm 0.05 in1.3 mm
09:30 AM 44.3°F6.8°C 42.1°F5.6°C 92% Calm Calm 2.0 mph3.2 kmh 30.17 in1021.7 mb 0.05 in1.3 mm 0.12 in3.0 mm 0.06 in1.5 mm
09:34 AM 44.3°F6.8°C 42.1°F5.6°C 92% Calm Calm 2.0 mph3.2 kmh 30.17 in1021.7 mb 0.05 in1.3 mm 0.00 in0.0 mm 0.06 in1.5 mm
09:39 AM 44.3°F6.8°C 42.1°F5.6°C 92% 1.0 mph E1.6 kmh E 1.0 mph1.6 kmh 30.18 in1022.0 mb 0.05 in1.3 mm 0.00 in0.0 mm 0.06 in1.5 mm
09:45 AM 44.4°F6.9°C 42.2°F5.7°C 92% Calm Calm 2.0 mph3.2 kmh 30.18 in1022.0 mb 0.05 in1.3 mm 0.00 in0.0 mm 0.06 in1.5 mm
09:50 AM 44.5°F6.9°C 42.3°F5.7°C 92% Calm Calm 1.0 mph1.6 kmh 30.17 in1021.7 mb 0.06 in1.5 mm 0.12 in3.0 mm 0.07 in1.8 mm
09:55 AM 44.5°F6.9°C 42.3°F5.7°C 92% 2.0 mph E3.2 kmh E 2.0 mph3.2 kmh 30.17 in1021.7 mb 0.05 in1.3 mm 0.00 in0.0 mm 0.07 in1.8 mm
09:59 AM 44.6°F7.0°C 42.4°F5.8°C 92% Calm Calm 3.0 mph4.8 kmh 30.17 in1021.7 mb 0.05 in1.3 mm 0.00 in0.0 mm 0.07 in1.8 mm
10:04 AM 44.7°F7.1°C 42.5°F5.8°C 92% Calm Calm 1.0 mph1.6 kmh 30.17 in1021.7 mb 0.06 in1.5 mm 0.01 in0.3 mm 0.08 in2.0 mm
10:10 AM 44.9°F7.2°C 42.7°F5.9°C 92% Calm Calm 3.0 mph4.8 kmh 30.17 in1021.7 mb 0.05 in1.3 mm 0.00 in0.0 mm 0.08 in2.0 mm
10:15 AM 45.0°F7.2°C 42.8°F6.0°C 92% Calm Calm 3.0 mph4.8 kmh 30.17 in1021.7 mb 0.05 in1.3 mm 0.00 in0.0 mm 0.08 in2.0 mm
10:20 AM 45.2°F7.3°C 43.0°F6.1°C 92% Calm Calm 3.0 mph4.8 kmh 30.17 in1021.7 mb 0.05 in1.3 mm 0.00 in0.0 mm 0.08 in2.0 mm
10:25 AM 45.4°F7.4°C 43.2°F6.2°C 92% 2.0 mph E3.2 kmh E 2.0 mph3.2 kmh 30.17 in1021.7 mb 0.05 in1.3 mm 0.00 in0.0 mm 0.08 in2.0 mm
10:30 AM 45.5°F7.5°C 43.3°F6.3°C 92% Calm Calm 2.0 mph3.2 kmh 30.17 in1021.7 mb 0.04 in1.0 mm 0.00 in0.0 mm 0.08 in2.0 mm
10:34 AM 45.7°F7.6°C 43.5°F6.4°C 92% Calm Calm 1.0 mph1.6 kmh 30.17 in1021.7 mb 0.05 in1.3 mm 0.15 in3.8 mm 0.09 in2.3 mm
10:40 AM 45.9°F7.7°C 43.7°F6.5°C 92% Calm Calm -- 30.17 in1021.7 mb 0.05 in1.3 mm 0.00 in0.0 mm 0.09 in2.3 mm
10:45 AM 46.0°F7.8°C 43.8°F6.6°C 92% Calm Calm 2.0 mph3.2 kmh 30.17 in1021.7 mb 0.04 in1.0 mm 0.00 in0.0 mm 0.09 in2.3 mm
10:50 AM 46.1°F7.8°C 43.9°F6.6°C 92% 1.0 mph E1.6 kmh E 2.0 mph3.2 kmh 30.17 in1021.7 mb 0.05 in1.3 mm 0.12 in3.0 mm 0.10 in2.5 mm
10:55 AM 46.1°F7.8°C 43.9°F6.6°C 92% 1.0 mph E1.6 kmh E 1.0 mph1.6 kmh 30.17 in1021.7 mb 0.04 in1.0 mm 0.00 in0.0 mm 0.10 in2.5 mm
11:00 AM 46.1°F7.8°C 43.9°F6.6°C 92% Calm Calm 3.0 mph4.8 kmh 30.17 in1021.7 mb 0.04 in1.0 mm 0.00 in0.0 mm 0.10 in2.5 mm
11:04 AM 46.2°F7.9°C 44.0°F6.7°C 92% 1.0 mph E1.6 kmh E 1.0 mph1.6 kmh 30.17 in1021.7 mb 0.05 in1.3 mm 0.15 in3.8 mm 0.11 in2.8 mm
11:09 AM 46.3°F7.9°C 44.4°F6.9°C 93% Calm Calm 2.0 mph3.2 kmh 30.16 in1021.3 mb 0.04 in1.0 mm 0.00 in0.0 mm 0.11 in2.8 mm
11:14 AM 46.3°F7.9°C 44.1°F6.7°C 92% 1.0 mph E1.6 kmh E 3.0 mph4.8 kmh 30.16 in1021.3 mb 0.04 in1.0 mm 0.00 in0.0 mm 0.11 in2.8 mm
11:19 AM 46.4°F8.0°C 44.2°F6.8°C 92% 2.0 mph E3.2 kmh E 4.0 mph6.4 kmh 30.16 in1021.3 mb 0.04 in1.0 mm 0.00 in0.0 mm 0.11 in2.8 mm
11:24 AM 46.6°F8.1°C 44.4°F6.9°C 92% 2.0 mph E3.2 kmh E 2.0 mph3.2 kmh 30.15 in1021.0 mb 0.04 in1.0 mm 0.00 in0.0 mm 0.11 in2.8 mm
11:29 AM 46.9°F8.3°C 45.0°F7.2°C 93% 2.0 mph N3.2 kmh N 4.0 mph6.4 kmh 30.15 in1021.0 mb 0.04 in1.0 mm 0.00 in0.0 mm 0.11 in2.8 mm
11:35 AM 47.1°F8.4°C 45.2°F7.3°C 93% 2.0 mph N3.2 kmh N 4.0 mph6.4 kmh 30.15 in1021.0 mb 0.04 in1.0 mm 0.00 in0.0 mm 0.11 in2.8 mm
11:40 AM 47.1°F8.4°C 45.2°F7.3°C 93% 1.0 mph N1.6 kmh N 5.0 mph8.0 kmh 30.15 in1021.0 mb 0.03 in0.8 mm 0.00 in0.0 mm 0.11 in2.8 mm
11:45 AM 47.2°F8.4°C 45.0°F7.2°C 92% Calm Calm 1.0 mph1.6 kmh 30.15 in1021.0 mb 0.04 in1.0 mm 0.12 in3.0 mm 0.12 in3.0 mm
11:50 AM 47.3°F8.5°C 45.1°F7.3°C 92% Calm Calm 1.0 mph1.6 kmh 30.15 in1021.0 mb 0.04 in1.0 mm 0.00 in0.0 mm 0.12 in3.0 mm
11:55 AM 47.4°F8.6°C 45.2°F7.3°C 92% 2.0 mph N3.2 kmh N 3.0 mph4.8 kmh 30.15 in1021.0 mb 0.03 in0.8 mm 0.00 in0.0 mm 0.12 in3.0 mm
12:00 PM 47.4°F8.6°C 45.5°F7.5°C 93% 1.0 mph N1.6 kmh N 2.0 mph3.2 kmh 30.15 in1021.0 mb 0.03 in0.8 mm 0.00 in0.0 mm 0.12 in3.0 mm
12:05 PM 47.5°F8.6°C 45.6°F7.6°C 93% Calm Calm 1.0 mph1.6 kmh 30.15 in1021.0 mb 0.04 in1.0 mm 0.12 in3.0 mm 0.13 in3.3 mm
12:10 PM 47.5°F8.6°C 45.6°F7.6°C 93% Calm Calm -- 30.15 in1021.0 mb 0.03 in0.8 mm 0.00 in0.0 mm 0.13 in3.3 mm
12:14 PM 47.6°F8.7°C 45.7°F7.6°C 93% Calm Calm -- 30.14 in1020.7 mb 0.03 in0.8 mm 0.00 in0.0 mm 0.13 in3.3 mm
12:20 PM 47.7°F8.7°C 45.5°F7.5°C 92% 2.0 mph N3.2 kmh N 2.0 mph3.2 kmh 30.14 in1020.7 mb 0.03 in0.8 mm 0.00 in0.0 mm 0.13 in3.3 mm
12:25 PM 47.8°F8.8°C 45.6°F7.6°C 92% Calm Calm -- 30.14 in1020.7 mb 0.02 in0.5 mm 0.00 in0.0 mm 0.13 in3.3 mm
12:30 PM 47.9°F8.8°C 45.7°F7.6°C 92% Calm Calm -- 30.14 in1020.7 mb 0.02 in0.5 mm 0.00 in0.0 mm 0.13 in3.3 mm
12:35 PM 48.0°F8.9°C 46.1°F7.8°C 93% Calm Calm -- 30.14 in1020.7 mb 0.02 in0.5 mm 0.00 in0.0 mm 0.13 in3.3 mm
12:40 PM 48.1°F8.9°C 46.2°F7.9°C 93% Calm Calm 1.0 mph1.6 kmh 30.14 in1020.7 mb 0.02 in0.5 mm 0.00 in0.0 mm 0.13 in3.3 mm
12:45 PM 48.2°F9.0°C 46.3°F7.9°C 93% Calm Calm -- 30.14 in1020.7 mb 0.02 in0.5 mm 0.00 in0.0 mm 0.13 in3.3 mm
12:50 PM 48.3°F9.1°C 46.4°F8.0°C 93% Calm Calm -- 30.14 in1020.7 mb 0.01 in0.3 mm 0.00 in0.0 mm 0.13 in3.3 mm
12:55 PM 48.4°F9.1°C 46.5°F8.1°C 93% Calm Calm -- 30.14 in1020.7 mb 0.01 in0.3 mm 0.00 in0.0 mm 0.13 in3.3 mm
01:00 PM 48.5°F9.2°C 46.3°F7.9°C 92% Calm Calm -- 30.13 in1020.3 mb 0.01 in0.3 mm 0.00 in0.0 mm 0.13 in3.3 mm
01:05 PM 48.6°F9.2°C 46.4°F8.0°C 92% Calm Calm -- 30.13 in1020.3 mb 0.01 in0.3 mm 0.00 in0.0 mm 0.13 in3.3 mm
01:09 PM 48.6°F9.2°C 46.4°F8.0°C 92% Calm Calm 1.0 mph1.6 kmh 30.13 in1020.3 mb 0.00 in0.0 mm 0.00 in0.0 mm 0.13 in3.3 mm
01:15 PM 48.6°F9.2°C 46.4°F8.0°C 92% Calm Calm 1.0 mph1.6 kmh 30.13 in1020.3 mb 0.00 in0.0 mm 0.00 in0.0 mm 0.13 in3.3 mm
01:20 PM 48.6°F9.2°C 46.4°F8.0°C 92% Calm Calm 2.0 mph3.2 kmh 30.13 in1020.3 mb 0.00 in0.0 mm 0.00 in0.0 mm 0.13 in3.3 mm
01:25 PM 48.7°F9.3°C 46.8°F8.2°C 93% Calm Calm 1.0 mph1.6 kmh 30.13 in1020.3 mb 0.00 in0.0 mm 0.00 in0.0 mm 0.13 in3.3 mm
01:30 PM 48.8°F9.3°C 46.9°F8.3°C 93% Calm Calm 2.0 mph3.2 kmh 30.12 in1020.0 mb 0.00 in0.0 mm 0.00 in0.0 mm 0.13 in3.3 mm
01:35 PM 48.8°F9.3°C 46.9°F8.3°C 93% Calm Calm 1.0 mph1.6 kmh 30.12 in1020.0 mb 0.00 in0.0 mm 0.00 in0.0 mm 0.13 in3.3 mm
01:40 PM 48.9°F9.4°C 47.0°F8.3°C 93% Calm Calm 2.0 mph3.2 kmh 30.13 in1020.3 mb 0.00 in0.0 mm 0.00 in0.0 mm 0.13 in3.3 mm
01:44 PM 49.1°F9.5°C 47.2°F8.4°C 93% Calm Calm -- 30.13 in1020.3 mb 0.01 in0.3 mm 0.15 in3.8 mm 0.14 in3.6 mm
01:50 PM 49.2°F9.6°C 47.3°F8.5°C 93% Calm Calm -- 30.13 in1020.3 mb 0.01 in0.3 mm 0.00 in0.0 mm 0.14 in3.6 mm
01:54 PM 49.2°F9.6°C 47.3°F8.5°C 93% Calm Calm -- 30.12 in1020.0 mb 0.01 in0.3 mm 0.00 in0.0 mm 0.14 in3.6 mm
02:00 PM 49.3°F9.6°C 47.4°F8.6°C 93% Calm Calm 1.0 mph1.6 kmh 30.12 in1020.0 mb 0.01 in0.3 mm 0.00 in0.0 mm 0.14 in3.6 mm
02:04 PM 49.4°F9.7°C 47.5°F8.6°C 93% Calm Calm 1.0 mph1.6 kmh 30.12 in1020.0 mb 0.01 in0.3 mm 0.00 in0.0 mm 0.14 in3.6 mm
02:10 PM 49.4°F9.7°C 47.5°F8.6°C 93% Calm Calm -- 30.12 in1020.0 mb 0.01 in0.3 mm 0.00 in0.0 mm 0.14 in3.6 mm
02:15 PM 49.4°F9.7°C 47.5°F8.6°C 93% Calm Calm -- 30.12 in1020.0 mb 0.01 in0.3 mm 0.00 in0.0 mm 0.14 in3.6 mm
02:20 PM 49.4°F9.7°C 47.5°F8.6°C 93% Calm Calm -- 30.12 in1020.0 mb 0.01 in0.3 mm 0.00 in0.0 mm 0.14 in3.6 mm
02:24 PM 49.4°F9.7°C 47.5°F8.6°C 93% 2.0 mph E3.2 kmh E 2.0 mph3.2 kmh 30.11 in1019.6 mb 0.01 in0.3 mm 0.00 in0.0 mm 0.14 in3.6 mm
02:30 PM 49.4°F9.7°C 47.5°F8.6°C 93% 2.0 mph NE3.2 kmh NE 3.0 mph4.8 kmh 30.12 in1020.0 mb 0.01 in0.3 mm 0.00 in0.0 mm 0.14 in3.6 mm
02:34 PM 49.3°F9.6°C 47.4°F8.6°C 93% Calm Calm 3.0 mph4.8 kmh 30.12 in1020.0 mb 0.01 in0.3 mm 0.00 in0.0 mm 0.14 in3.6 mm
02:39 PM 49.3°F9.6°C 47.4°F8.6°C 93% 1.0 mph NE1.6 kmh NE 3.0 mph4.8 kmh 30.11 in1019.6 mb 0.01 in0.3 mm 0.00 in0.0 mm 0.14 in3.6 mm
02:45 PM 49.3°F9.6°C 47.4°F8.6°C 93% Calm Calm 3.0 mph4.8 kmh 30.11 in1019.6 mb 0.00 in0.0 mm 0.00 in0.0 mm 0.14 in3.6 mm
02:50 PM 49.3°F9.6°C 47.4°F8.6°C 93% Calm Calm -- 30.12 in1020.0 mb 0.00 in0.0 mm 0.00 in0.0 mm 0.14 in3.6 mm
02:55 PM 49.3°F9.6°C 47.4°F8.6°C 93% Calm Calm 3.0 mph4.8 kmh 30.12 in1020.0 mb 0.01 in0.3 mm 0.12 in3.0 mm 0.15 in3.8 mm
03:00 PM 49.3°F9.6°C 47.4°F8.6°C 93% Calm Calm 3.0 mph4.8 kmh 30.11 in1019.6 mb 0.01 in0.3 mm 0.00 in0.0 mm 0.15 in3.8 mm
03:05 PM 49.3°F9.6°C 47.4°F8.6°C 93% Calm Calm 3.0 mph4.8 kmh 30.11 in1019.6 mb 0.01 in0.3 mm 0.00 in0.0 mm 0.15 in3.8 mm
03:10 PM 49.4°F9.7°C 47.5°F8.6°C 93% 4.0 mph ENE6.4 kmh ENE 4.0 mph6.4 kmh 30.11 in1019.6 mb 0.01 in0.3 mm 0.00 in0.0 mm 0.15 in3.8 mm
03:15 PM 49.4°F9.7°C 47.5°F8.6°C 93% Calm Calm 3.0 mph4.8 kmh 30.10 in1019.3 mb 0.01 in0.3 mm 0.00 in0.0 mm 0.15 in3.8 mm
03:19 PM 49.4°F9.7°C 47.5°F8.6°C 93% 3.0 mph ENE4.8 kmh ENE 3.0 mph4.8 kmh 30.10 in1019.3 mb 0.01 in0.3 mm 0.00 in0.0 mm 0.15 in3.8 mm
03:25 PM 49.5°F9.7°C 47.6°F8.7°C 93% Calm Calm 4.0 mph6.4 kmh 30.10 in1019.3 mb 0.01 in0.3 mm 0.00 in0.0 mm 0.15 in3.8 mm
03:29 PM 49.6°F9.8°C 47.7°F8.7°C 93% 1.0 mph NE1.6 kmh NE 1.0 mph1.6 kmh 30.10 in1019.3 mb 0.01 in0.3 mm 0.00 in0.0 mm 0.15 in3.8 mm
03:34 PM 49.6°F9.8°C 47.4°F8.6°C 92% 1.0 mph ENE1.6 kmh ENE 5.0 mph8.0 kmh 30.10 in1019.3 mb 0.01 in0.3 mm 0.00 in0.0 mm 0.15 in3.8 mm
03:40 PM 49.7°F9.8°C 47.5°F8.6°C 92% Calm Calm 4.0 mph6.4 kmh 30.10 in1019.3 mb 0.01 in0.3 mm 0.00 in0.0 mm 0.15 in3.8 mm
03:45 PM 49.8°F9.9°C 47.6°F8.7°C 92% 3.0 mph E4.8 kmh E 6.0 mph9.7 kmh 30.10 in1019.3 mb 0.02 in0.5 mm 0.12 in3.0 mm 0.16 in4.1 mm
03:50 PM 49.9°F9.9°C 47.7°F8.7°C 92% 2.0 mph NE3.2 kmh NE 5.0 mph8.0 kmh 30.10 in1019.3 mb 0.02 in0.5 mm 0.00 in0.0 mm 0.16 in4.1 mm
03:55 PM 49.9°F9.9°C 48.0°F8.9°C 93% Calm Calm 3.0 mph4.8 kmh 30.09 in1019.0 mb 0.02 in0.5 mm 0.00 in0.0 mm 0.16 in4.1 mm
04:00 PM 50.0°F10.0°C 48.1°F8.9°C 93% 1.0 mph NE1.6 kmh NE 3.0 mph4.8 kmh 30.09 in1019.0 mb 0.01 in0.3 mm 0.00 in0.0 mm 0.16 in4.1 mm
04:04 PM 50.0°F10.0°C 48.1°F8.9°C 93% Calm Calm 5.0 mph8.0 kmh 30.09 in1019.0 mb 0.01 in0.3 mm 0.00 in0.0 mm 0.16 in4.1 mm
04:10 PM 49.9°F9.9°C 48.0°F8.9°C 93% Calm Calm 3.0 mph4.8 kmh 30.09 in1019.0 mb 0.01 in0.3 mm 0.00 in0.0 mm 0.16 in4.1 mm
04:15 PM 49.9°F9.9°C 48.0°F8.9°C 93% 3.0 mph ENE4.8 kmh ENE 3.0 mph4.8 kmh 30.09 in1019.0 mb 0.01 in0.3 mm 0.00 in0.0 mm 0.16 in4.1 mm
04:20 PM 49.9°F9.9°C 48.0°F8.9°C 93% 1.0 mph NE1.6 kmh NE 4.0 mph6.4 kmh 30.09 in1019.0 mb 0.01 in0.3 mm 0.00 in0.0 mm 0.16 in4.1 mm
04:24 PM 49.9°F9.9°C 48.0°F8.9°C 93% 1.0 mph NE1.6 kmh NE 4.0 mph6.4 kmh 30.09 in1019.0 mb 0.01 in0.3 mm 0.00 in0.0 mm 0.16 in4.1 mm
04:30 PM 49.9°F9.9°C 48.0°F8.9°C 93% Calm Calm 3.0 mph4.8 kmh 30.09 in1019.0 mb 0.01 in0.3 mm 0.00 in0.0 mm 0.16 in4.1 mm
04:35 PM 50.0°F10.0°C 48.1°F8.9°C 93% 1.0 mph NNE1.6 kmh NNE 4.0 mph6.4 kmh 30.09 in1019.0 mb 0.01 in0.3 mm 0.00 in0.0 mm 0.16 in4.1 mm
04:40 PM 49.9°F9.9°C 47.7°F8.7°C 92% 1.0 mph NE1.6 kmh NE 4.0 mph6.4 kmh 30.10 in1019.3 mb 0.01 in0.3 mm 0.00 in0.0 mm 0.16 in4.1 mm
04:45 PM 49.9°F9.9°C 47.7°F8.7°C 92% 2.0 mph NNE3.2 kmh NNE 5.0 mph8.0 kmh 30.09 in1019.0 mb 0.01 in0.3 mm 0.00 in0.0 mm 0.16 in4.1 mm
04:50 PM 49.9°F9.9°C 47.7°F8.7°C 92% 2.0 mph NNE3.2 kmh NNE 4.0 mph6.4 kmh 30.09 in1019.0 mb 0.00 in0.0 mm 0.00 in0.0 mm 0.16 in4.1 mm
04:55 PM 49.9°F9.9°C 47.7°F8.7°C 92% 1.0 mph NNE1.6 kmh NNE 3.0 mph4.8 kmh 30.09 in1019.0 mb 0.00 in0.0 mm 0.00 in0.0 mm 0.16 in4.1 mm
04:59 PM 49.8°F9.9°C 47.6°F8.7°C 92% Calm Calm 5.0 mph8.0 kmh 30.10 in1019.3 mb 0.00 in0.0 mm 0.00 in0.0 mm 0.16 in4.1 mm
05:05 PM 49.8°F9.9°C 47.6°F8.7°C 92% Calm Calm 4.0 mph6.4 kmh 30.09 in1019.0 mb 0.00 in0.0 mm 0.00 in0.0 mm 0.16 in4.1 mm
05:10 PM 49.8°F9.9°C 47.6°F8.7°C 92% 3.0 mph NNE4.8 kmh NNE 4.0 mph6.4 kmh 30.09 in1019.0 mb 0.00 in0.0 mm 0.00 in0.0 mm 0.16 in4.1 mm
05:15 PM 49.8°F9.9°C 47.6°F8.7°C 92% 4.0 mph NNE6.4 kmh NNE 8.0 mph12.9 kmh 30.08 in1018.6 mb 0.00 in0.0 mm 0.00 in0.0 mm 0.16 in4.1 mm
05:19 PM 49.8°F9.9°C 47.6°F8.7°C 92% 3.0 mph NNE4.8 kmh NNE 5.0 mph8.0 kmh 30.08 in1018.6 mb 0.00 in0.0 mm 0.00 in0.0 mm 0.16 in4.1 mm
05:24 PM 49.7°F9.8°C 47.5°F8.6°C 92% 1.0 mph NNE1.6 kmh NNE 6.0 mph9.7 kmh 30.08 in1018.6 mb 0.00 in0.0 mm 0.00 in0.0 mm 0.16 in4.1 mm
05:29 PM 49.7°F9.8°C 47.5°F8.6°C 92% 4.0 mph NNE6.4 kmh NNE 7.0 mph11.3 kmh 30.08 in1018.6 mb 0.00 in0.0 mm 0.00 in0.0 mm 0.16 in4.1 mm
05:35 PM 49.7°F9.8°C 47.5°F8.6°C 92% Calm Calm 6.0 mph9.7 kmh 30.09 in1019.0 mb 0.00 in0.0 mm 0.00 in0.0 mm 0.16 in4.1 mm
05:40 PM 49.6°F9.8°C 47.4°F8.6°C 92% 1.0 mph NE1.6 kmh NE 7.0 mph11.3 kmh 30.09 in1019.0 mb 0.00 in0.0 mm 0.00 in0.0 mm 0.16 in4.1 mm
05:45 PM 49.6°F9.8°C 47.4°F8.6°C 92% 2.0 mph NE3.2 kmh NE 4.0 mph6.4 kmh 30.09 in1019.0 mb 0.00 in0.0 mm 0.00 in0.0 mm 0.16 in4.1 mm
05:50 PM 49.5°F9.7°C 47.3°F8.5°C 92% 4.0 mph NE6.4 kmh NE 5.0 mph8.0 kmh 30.09 in1019.0 mb 0.00 in0.0 mm 0.00 in0.0 mm 0.16 in4.1 mm
05:54 PM 49.4°F9.7°C 47.2°F8.4°C 92% 1.0 mph NE1.6 kmh NE 5.0 mph8.0 kmh 30.09 in1019.0 mb 0.00 in0.0 mm 0.00 in0.0 mm 0.16 in4.1 mm
06:00 PM 49.4°F9.7°C 47.2°F8.4°C 92% 4.0 mph NNE6.4 kmh NNE 9.0 mph14.5 kmh 30.09 in1019.0 mb 0.00 in0.0 mm 0.00 in0.0 mm 0.16 in4.1 mm
06:05 PM 49.3°F9.6°C 47.1°F8.4°C 92% 1.0 mph NE1.6 kmh NE 3.0 mph4.8 kmh 30.09 in1019.0 mb 0.00 in0.0 mm 0.00 in0.0 mm 0.16 in4.1 mm
06:10 PM 49.3°F9.6°C 47.1°F8.4°C 92% 2.0 mph N3.2 kmh N 6.0 mph9.7 kmh 30.09 in1019.0 mb 0.00 in0.0 mm 0.00 in0.0 mm 0.16 in4.1 mm
06:14 PM 49.2°F9.6°C 47.0°F8.3°C 92% 1.0 mph NNE1.6 kmh NNE 4.0 mph6.4 kmh 30.08 in1018.6 mb 0.00 in0.0 mm 0.00 in0.0 mm 0.16 in4.1 mm
06:20 PM 49.2°F9.6°C 47.0°F8.3°C 92% 6.0 mph NNE9.7 kmh NNE 6.0 mph9.7 kmh 30.08 in1018.6 mb 0.00 in0.0 mm 0.00 in0.0 mm 0.16 in4.1 mm
06:24 PM 49.1°F9.5°C 46.9°F8.3°C 92% 1.0 mph NE1.6 kmh NE 7.0 mph11.3 kmh 30.08 in1018.6 mb 0.00 in0.0 mm 0.00 in0.0 mm 0.16 in4.1 mm
06:29 PM 49.0°F9.4°C 46.8°F8.2°C 92% 1.0 mph ENE1.6 kmh ENE 6.0 mph9.7 kmh 30.08 in1018.6 mb 0.00 in0.0 mm 0.00 in0.0 mm 0.16 in4.1 mm
06:35 PM 49.0°F9.4°C 46.8°F8.2°C 92% 1.0 mph NE1.6 kmh NE 4.0 mph6.4 kmh 30.08 in1018.6 mb 0.00 in0.0 mm 0.00 in0.0 mm 0.16 in4.1 mm
06:39 PM 48.9°F9.4°C 46.7°F8.2°C 92% 3.0 mph NE4.8 kmh NE 6.0 mph9.7 kmh 30.08 in1018.6 mb 0.00 in0.0 mm 0.00 in0.0 mm 0.16 in4.1 mm
06:45 PM 48.8°F9.3°C 46.6°F8.1°C 92% Calm Calm 6.0 mph9.7 kmh 30.08 in1018.6 mb 0.00 in0.0 mm 0.00 in0.0 mm 0.16 in4.1 mm
06:49 PM 48.8°F9.3°C 46.6°F8.1°C 92% 1.0 mph E1.6 kmh E 3.0 mph4.8 kmh 30.08 in1018.6 mb 0.00 in0.0 mm 0.00 in0.0 mm 0.16 in4.1 mm
06:55 PM 48.8°F9.3°C 46.6°F8.1°C 92% 1.0 mph NE1.6 kmh NE 5.0 mph8.0 kmh 30.08 in1018.6 mb 0.00 in0.0 mm 0.00 in0.0 mm 0.16 in4.1 mm
07:00 PM 48.7°F9.3°C 46.5°F8.1°C 92% Calm Calm 6.0 mph9.7 kmh 30.08 in1018.6 mb 0.00 in0.0 mm 0.00 in0.0 mm 0.16 in4.1 mm
07:05 PM 48.7°F9.3°C 46.5°F8.1°C 92% 1.0 mph E1.6 kmh E 6.0 mph9.7 kmh 30.08 in1018.6 mb 0.00 in0.0 mm 0.00 in0.0 mm 0.16 in4.1 mm
07:10 PM 48.7°F9.3°C 46.5°F8.1°C 92% 1.0 mph ENE1.6 kmh ENE 7.0 mph11.3 kmh 30.08 in1018.6 mb 0.00 in0.0 mm 0.00 in0.0 mm 0.16 in4.1 mm
07:15 PM 48.7°F9.3°C 46.5°F8.1°C 92% 2.0 mph NE3.2 kmh NE 7.0 mph11.3 kmh 30.08 in1018.6 mb 0.00 in0.0 mm 0.00 in0.0 mm 0.16 in4.1 mm
07:20 PM 48.7°F9.3°C 46.5°F8.1°C 92% Calm Calm 6.0 mph9.7 kmh 30.08 in1018.6 mb 0.00 in0.0 mm 0.00 in0.0 mm 0.16 in4.1 mm
07:25 PM 48.6°F9.2°C 46.4°F8.0°C 92% 3.0 mph NE4.8 kmh NE 4.0 mph6.4 kmh 30.08 in1018.6 mb 0.00 in0.0 mm 0.00 in0.0 mm 0.16 in4.1 mm
07:30 PM 48.6°F9.2°C 46.1°F7.8°C 91% 4.0 mph ENE6.4 kmh ENE 8.0 mph12.9 kmh 30.08 in1018.6 mb 0.00 in0.0 mm 0.00 in0.0 mm 0.16 in4.1 mm
07:35 PM 48.5°F9.2°C 46.0°F7.8°C 91% 2.0 mph NE3.2 kmh NE 5.0 mph8.0 kmh 30.08 in1018.6 mb 0.00 in0.0 mm 0.00 in0.0 mm 0.16 in4.1 mm
07:39 PM 48.5°F9.2°C 46.3°F7.9°C 92% 3.0 mph NE4.8 kmh NE 9.0 mph14.5 kmh 30.08 in1018.6 mb 0.00 in0.0 mm 0.00 in0.0 mm 0.16 in4.1 mm
07:45 PM 48.5°F9.2°C 46.3°F7.9°C 92% 1.0 mph NE1.6 kmh NE 8.0 mph12.9 kmh 30.07 in1018.3 mb 0.00 in0.0 mm 0.00 in0.0 mm 0.16 in4.1 mm
07:50 PM 48.4°F9.1°C 46.2°F7.9°C 92% 7.0 mph N11.3 kmh N 10.0 mph16.1 kmh 30.07 in1018.3 mb 0.00 in0.0 mm 0.00 in0.0 mm 0.16 in4.1 mm
07:55 PM 48.4°F9.1°C 46.2°F7.9°C 92% 6.0 mph NE9.7 kmh NE 8.0 mph12.9 kmh 30.06 in1017.9 mb 0.00 in0.0 mm 0.00 in0.0 mm 0.16 in4.1 mm
08:00 PM 48.4°F9.1°C 45.9°F7.7°C 91% 4.0 mph NE6.4 kmh NE 11.0 mph17.7 kmh 30.06 in1017.9 mb 0.00 in0.0 mm 0.00 in0.0 mm 0.16 in4.1 mm
08:05 PM 48.3°F9.1°C 45.8°F7.7°C 91% 2.0 mph NE3.2 kmh NE 10.0 mph16.1 kmh 30.06 in1017.9 mb 0.00 in0.0 mm 0.00 in0.0 mm 0.16 in4.1 mm
08:09 PM 48.3°F9.1°C 45.8°F7.7°C 91% 4.0 mph NE6.4 kmh NE 12.0 mph19.3 kmh 30.05 in1017.6 mb 0.00 in0.0 mm 0.00 in0.0 mm 0.16 in4.1 mm
08:15 PM 48.2°F9.0°C 45.7°F7.6°C 91% 6.0 mph NE9.7 kmh NE 10.0 mph16.1 kmh 30.05 in1017.6 mb 0.01 in0.3 mm 0.10 in2.5 mm 0.17 in4.3 mm
08:20 PM 48.2°F9.0°C 45.7°F7.6°C 91% 7.0 mph NE11.3 kmh NE 13.0 mph20.9 kmh 30.05 in1017.6 mb 0.01 in0.3 mm 0.00 in0.0 mm 0.17 in4.3 mm
08:25 PM 48.3°F9.1°C 45.5°F7.5°C 90% 10.0 mph N16.1 kmh N 15.0 mph24.1 kmh 30.04 in1017.3 mb 0.01 in0.3 mm 0.00 in0.0 mm 0.17 in4.3 mm
08:29 PM 48.4°F9.1°C 45.6°F7.6°C 90% 4.0 mph NE6.4 kmh NE 10.0 mph16.1 kmh 30.04 in1017.3 mb 0.01 in0.3 mm 0.00 in0.0 mm 0.17 in4.3 mm
08:34 PM 48.5°F9.2°C 45.4°F7.4°C 89% 8.0 mph N12.9 kmh N 12.0 mph19.3 kmh 30.04 in1017.3 mb 0.01 in0.3 mm 0.00 in0.0 mm 0.17 in4.3 mm
08:40 PM 48.6°F9.2°C 45.2°F7.3°C 88% 11.0 mph NE17.7 kmh NE 12.0 mph19.3 kmh 30.04 in1017.3 mb 0.01 in0.3 mm 0.00 in0.0 mm 0.17 in4.3 mm
08:45 PM 48.7°F9.3°C 45.3°F7.4°C 88% 10.0 mph N16.1 kmh N 16.0 mph25.7 kmh 30.04 in1017.3 mb 0.01 in0.3 mm 0.00 in0.0 mm 0.17 in4.3 mm
08:50 PM 48.7°F9.3°C 45.0°F7.2°C 87% 3.0 mph NNE4.8 kmh NNE 10.0 mph16.1 kmh 30.05 in1017.6 mb 0.01 in0.3 mm 0.00 in0.0 mm 0.17 in4.3 mm
08:55 PM 48.7°F9.3°C 45.0°F7.2°C 87% 9.0 mph NNE14.5 kmh NNE 10.0 mph16.1 kmh 30.06 in1017.9 mb 0.01 in0.3 mm 0.00 in0.0 mm 0.17 in4.3 mm
08:59 PM 48.8°F9.3°C 45.1°F7.3°C 87% 9.0 mph NE14.5 kmh NE 9.0 mph14.5 kmh 30.07 in1018.3 mb 0.01 in0.3 mm 0.00 in0.0 mm 0.17 in4.3 mm
09:05 PM 48.6°F9.2°C 44.9°F7.2°C 87% 8.0 mph NE12.9 kmh NE 9.0 mph14.5 kmh 30.07 in1018.3 mb 0.01 in0.3 mm 0.00 in0.0 mm 0.17 in4.3 mm
09:09 PM 48.3°F9.1°C 44.9°F7.2°C 88% 4.0 mph NE6.4 kmh NE 11.0 mph17.7 kmh 30.07 in1018.3 mb 0.01 in0.3 mm 0.00 in0.0 mm 0.17 in4.3 mm
09:15 PM 48.1°F8.9°C 44.7°F7.1°C 88% 5.0 mph N8.0 kmh N 13.0 mph20.9 kmh 30.07 in1018.3 mb 0.00 in0.0 mm 0.00 in0.0 mm 0.17 in4.3 mm
09:20 PM 47.8°F8.8°C 44.7°F7.1°C 89% 8.0 mph N12.9 kmh N 10.0 mph16.1 kmh 30.07 in1018.3 mb 0.00 in0.0 mm 0.00 in0.0 mm 0.17 in4.3 mm
09:25 PM 47.6°F8.7°C 44.5°F6.9°C 89% 10.0 mph NNE16.1 kmh NNE 13.0 mph20.9 kmh 30.06 in1017.9 mb 0.00 in0.0 mm 0.00 in0.0 mm 0.17 in4.3 mm
09:29 PM 47.4°F8.6°C 44.3°F6.8°C 89% 3.0 mph ENE4.8 kmh ENE 10.0 mph16.1 kmh 30.07 in1018.3 mb 0.00 in0.0 mm 0.00 in0.0 mm 0.17 in4.3 mm
09:35 PM 47.2°F8.4°C 44.1°F6.7°C 89% 7.0 mph NNE11.3 kmh NNE 11.0 mph17.7 kmh 30.07 in1018.3 mb 0.00 in0.0 mm 0.00 in0.0 mm 0.17 in4.3 mm
09:40 PM 47.1°F8.4°C 44.0°F6.7°C 89% 7.0 mph NNE11.3 kmh NNE 11.0 mph17.7 kmh 30.07 in1018.3 mb 0.00 in0.0 mm 0.00 in0.0 mm 0.17 in4.3 mm
09:45 PM 46.9°F8.3°C 44.1°F6.7°C 90% 4.0 mph NE6.4 kmh NE 10.0 mph16.1 kmh 30.07 in1018.3 mb 0.00 in0.0 mm 0.00 in0.0 mm 0.17 in4.3 mm
09:50 PM 46.9°F8.3°C 44.1°F6.7°C 90% 9.0 mph NE14.5 kmh NE 13.0 mph20.9 kmh 30.07 in1018.3 mb 0.00 in0.0 mm 0.00 in0.0 mm 0.17 in4.3 mm
09:55 PM 46.8°F8.2°C 44.0°F6.7°C 90% 7.0 mph NNE11.3 kmh NNE 15.0 mph24.1 kmh 30.06 in1017.9 mb 0.00 in0.0 mm 0.00 in0.0 mm 0.17 in4.3 mm
10:00 PM 46.8°F8.2°C 44.0°F6.7°C 90% 9.0 mph NNE14.5 kmh NNE 10.0 mph16.1 kmh 30.07 in1018.3 mb 0.00 in0.0 mm 0.00 in0.0 mm 0.17 in4.3 mm
10:05 PM 46.8°F8.2°C 44.0°F6.7°C 90% 8.0 mph NE12.9 kmh NE 13.0 mph20.9 kmh 30.06 in1017.9 mb 0.00 in0.0 mm 0.00 in0.0 mm 0.17 in4.3 mm
10:10 PM 46.8°F8.2°C 43.7°F6.5°C 89% 8.0 mph NNE12.9 kmh NNE 14.0 mph22.5 kmh 30.06 in1017.9 mb 0.00 in0.0 mm 0.00 in0.0 mm 0.17 in4.3 mm
10:15 PM 46.8°F8.2°C 43.7°F6.5°C 89% 6.0 mph N9.7 kmh N 12.0 mph19.3 kmh 30.07 in1018.3 mb 0.00 in0.0 mm 0.00 in0.0 mm 0.17 in4.3 mm
10:20 PM 46.8°F8.2°C 43.7°F6.5°C 89% 6.0 mph NE9.7 kmh NE 12.0 mph19.3 kmh 30.06 in1017.9 mb 0.00 in0.0 mm 0.00 in0.0 mm 0.17 in4.3 mm
10:25 PM 46.8°F8.2°C 43.7°F6.5°C 89% 6.0 mph N9.7 kmh N 13.0 mph20.9 kmh 30.06 in1017.9 mb 0.00 in0.0 mm 0.00 in0.0 mm 0.17 in4.3 mm
10:30 PM 46.7°F8.2°C 43.6°F6.4°C 89% 5.0 mph NNE8.0 kmh NNE 9.0 mph14.5 kmh 30.06 in1017.9 mb 0.00 in0.0 mm 0.00 in0.0 mm 0.17 in4.3 mm
10:35 PM 46.7°F8.2°C 43.6°F6.4°C 89% 5.0 mph NNE8.0 kmh NNE 12.0 mph19.3 kmh 30.06 in1017.9 mb 0.00 in0.0 mm 0.00 in0.0 mm 0.17 in4.3 mm
10:40 PM 46.7°F8.2°C 43.6°F6.4°C 89% 5.0 mph NNE8.0 kmh NNE 11.0 mph17.7 kmh 30.07 in1018.3 mb 0.00 in0.0 mm 0.00 in0.0 mm 0.17 in4.3 mm
10:45 PM 46.7°F8.2°C 43.6°F6.4°C 89% 3.0 mph N4.8 kmh N 14.0 mph22.5 kmh 30.08 in1018.6 mb 0.00 in0.0 mm 0.00 in0.0 mm 0.17 in4.3 mm
10:49 PM 46.7°F8.2°C 43.6°F6.4°C 89% Calm Calm 6.0 mph9.7 kmh 30.09 in1019.0 mb 0.00 in0.0 mm 0.00 in0.0 mm 0.17 in4.3 mm
10:54 PM 46.6°F8.1°C 43.5°F6.4°C 89% 3.0 mph N4.8 kmh N 4.0 mph6.4 kmh 30.10 in1019.3 mb 0.00 in0.0 mm 0.00 in0.0 mm 0.17 in4.3 mm
10:59 PM 46.5°F8.1°C 43.4°F6.3°C 89% 1.0 mph NNW1.6 kmh NNW 4.0 mph6.4 kmh 30.10 in1019.3 mb 0.00 in0.0 mm 0.00 in0.0 mm 0.17 in4.3 mm
11:05 PM 46.5°F8.1°C 43.4°F6.3°C 89% 5.0 mph N8.0 kmh N 9.0 mph14.5 kmh 30.09 in1019.0 mb 0.00 in0.0 mm 0.00 in0.0 mm 0.17 in4.3 mm
11:10 PM 46.5°F8.1°C 43.7°F6.5°C 90% 4.0 mph NE6.4 kmh NE 8.0 mph12.9 kmh 30.09 in1019.0 mb 0.00 in0.0 mm 0.00 in0.0 mm 0.17 in4.3 mm
11:15 PM 46.4°F8.0°C 43.6°F6.4°C 90% 4.0 mph NE6.4 kmh NE 9.0 mph14.5 kmh 30.09 in1019.0 mb 0.00 in0.0 mm 0.00 in0.0 mm 0.17 in4.3 mm
11:20 PM 46.3°F7.9°C 43.5°F6.4°C 90% 2.0 mph N3.2 kmh N 8.0 mph12.9 kmh 30.09 in1019.0 mb 0.00 in0.0 mm 0.00 in0.0 mm 0.17 in4.3 mm
11:25 PM 46.3°F7.9°C 43.5°F6.4°C 90% 5.0 mph NNE8.0 kmh NNE 8.0 mph12.9 kmh 30.09 in1019.0 mb 0.00 in0.0 mm 0.00 in0.0 mm 0.17 in4.3 mm
11:30 PM 46.3°F7.9°C 43.5°F6.4°C 90% 4.0 mph NNE6.4 kmh NNE 9.0 mph14.5 kmh 30.09 in1019.0 mb 0.00 in0.0 mm 0.00 in0.0 mm 0.17 in4.3 mm
11:35 PM 46.3°F7.9°C 43.5°F6.4°C 90% 2.0 mph NNE3.2 kmh NNE 8.0 mph12.9 kmh 30.09 in1019.0 mb 0.00 in0.0 mm 0.00 in0.0 mm 0.17 in4.3 mm
11:40 PM 46.2°F7.9°C 43.4°F6.3°C 90% 7.0 mph N11.3 kmh N 7.0 mph11.3 kmh 30.09 in1019.0 mb 0.00 in0.0 mm 0.00 in0.0 mm 0.17 in4.3 mm
11:45 PM 46.1°F7.8°C 43.3°F6.3°C 90% 3.0 mph N4.8 kmh N 7.0 mph11.3 kmh 30.08 in1018.6 mb 0.00 in0.0 mm 0.00 in0.0 mm 0.17 in4.3 mm
11:50 PM 46.1°F7.8°C 43.3°F6.3°C 90% 4.0 mph E6.4 kmh E 10.0 mph16.1 kmh 30.08 in1018.6 mb 0.00 in0.0 mm 0.00 in0.0 mm 0.17 in4.3 mm
11:55 PM 46.0°F7.8°C 43.2°F6.2°C 90% 10.0 mph NNE16.1 kmh NNE 12.0 mph19.3 kmh 30.08 in1018.6 mb 0.00 in0.0 mm 0.00 in0.0 mm 0.17 in4.3 mm